Time;durP1;ratioP1;P1;durP2;ratioP2;P2;SDS_P1;SDS_P2;PMS_P1;PMS_P2;Temp;Humidity;BMP_temperature;BMP_pressure;BME280_temperature;BME280_humidity;BME280_pressure;Samples;Min_cycle;Max_cycle;Signal;HPM_P1;HPM_P2
2023/03/22 00:01:12;;;;;;;90.70;44.40;;;;;;;6.70;91.37;98460.30;105228;1268;97980;-73
2023/03/22 00:03:40;;;;;;;97.50;44.40;;;;;;;6.73;91.57;98462.36;105192;1255;99281;-73
2023/03/22 00:06:08;;;;;;;100.30;44.80;;;;;;;6.73;91.56;98461.06;105259;1256;108281;-73
2023/03/22 00:08:35;;;;;;;79.20;38.00;;;;;;;6.70;91.35;98454.73;105015;1253;99118;-73
2023/03/22 00:11:03;;;;;;;79.40;38.00;;;;;;;6.62;91.02;98448.89;105140;1256;98491;-73
2023/03/22 00:13:32;;;;;;;79.70;39.20;;;;;;;6.58;91.12;98446.17;105249;1258;111978;-73
2023/03/22 00:16:01;;;;;;;83.00;39.10;;;;;;;6.55;91.32;98443.05;105324;1256;99294;-73
2023/03/22 00:18:29;;;;;;;78.30;35.80;;;;;;;6.52;91.88;98443.20;105168;1257;108672;-73
2023/03/22 00:20:58;;;;;;;79.90;38.20;;;;;;;6.50;91.97;98441.20;105252;1256;97965;-73
2023/03/22 00:23:27;;;;;;;78.20;38.90;;;;;;;6.46;92.20;98445.16;105265;1257;98401;-73
2023/03/22 00:25:54;;;;;;;78.00;35.80;;;;;;;6.44;92.18;98449.77;105068;1272;112204;-74
2023/03/22 00:28:22;;;;;;;81.30;38.40;;;;;;;6.43;92.20;98449.14;105257;1266;99398;-73
2023/03/22 00:30:53;;;;;;;77.60;38.30;;;;;;;6.46;92.41;98454.23;105071;1256;107500;-72
2023/03/22 00:33:20;;;;;;;90.70;41.50;;;;;;;6.47;92.12;98448.10;105146;1256;99183;-71
2023/03/22 00:35:57;;;;;;;90.30;42.20;;;;;;;6.43;92.31;98440.59;105164;1257;97892;-73
2023/03/22 00:38:35;;;;;;;97.90;44.00;;;;;;;6.42;92.15;98439.84;105188;1254;112348;-73
2023/03/22 00:41:22;;;;;;;87.00;42.10;;;;;;;6.46;92.20;98434.34;105189;1266;99382;-74
2023/03/22 00:43:50;;;;;;;97.00;45.30;;;;;;;6.40;91.53;98439.36;105069;1256;108183;-74
2023/03/22 00:46:19;;;;;;;92.20;44.80;;;;;;;6.41;92.15;98435.59;105310;1256;99079;-73
2023/03/22 00:48:47;;;;;;;112.50;51.00;;;;;;;6.46;91.89;98425.20;105152;1256;98149;-73
2023/03/22 00:51:15;;;;;;;95.60;46.50;;;;;;;6.42;91.68;98421.60;105306;1256;111246;-73
2023/03/22 00:53:41;;;;;;;112.50;49.10;;;;;;;6.37;91.18;98422.71;105068;1253;99194;-73
2023/03/22 00:56:14;;;;;;;125.60;54.30;;;;;;;6.26;90.78;98425.17;105022;1266;108624;-76
2023/03/22 00:58:42;;;;;;;117.70;51.70;;;;;;;6.15;90.90;98427.41;105088;1269;98261;-76
2023/03/22 01:01:12;;;;;;;97.40;46.00;;;;;;;6.08;91.10;98428.09;105315;1257;97891;-73
2023/03/22 01:03:40;;;;;;;;;;;;;;;5.94;90.65;98422.73;105321;1256;112225;-72
2023/03/22 01:06:08;;;;;;;116.90;46.20;;;;;;;5.86;91.08;98415.48;105031;1267;99197;-72
2023/03/22 01:08:42;;;;;;;97.60;45.30;;;;;;;5.80;91.28;98407.27;105186;1266;108725;-73
2023/03/22 01:11:14;;;;;;;102.90;46.00;;;;;;;5.73;91.48;98400.09;105233;1256;97908;-73
2023/03/22 01:13:49;;;;;;;91.80;42.30;;;;;;;5.69;91.61;98398.24;105288;1257;98359;-73
2023/03/22 01:16:26;;;;;;;90.00;42.50;;;;;;;5.62;91.72;98389.94;105293;1256;111681;-73
2023/03/22 01:18:56;;;;;;;89.30;42.10;;;;;;;5.58;91.88;98384.76;105229;1257;99326;-73
2023/03/22 01:21:25;;;;;;;93.90;48.10;;;;;;;5.58;92.06;98382.31;105294;1257;108732;-73
2023/03/22 01:23:56;;;;;;;82.80;43.90;;;;;;;5.58;92.33;98380.08;105202;1275;98747;-73
2023/03/22 01:26:23;;;;;;;83.60;39.60;;;;;;;5.59;92.40;98379.48;105213;1253;97922;-73
2023/03/22 01:28:50;;;;;;;88.70;42.10;;;;;;;5.58;92.30;98381.13;105275;1253;98064;-73
2023/03/22 01:31:16;;;;;;;89.40;42.50;;;;;;;5.56;92.14;98381.63;105102;1256;99279;-73
2023/03/22 01:33:43;;;;;;;108.50;46.80;;;;;;;5.51;91.87;98381.02;105108;1257;97908;-72
2023/03/22 01:36:10;;;;;;;177.90;65.30;;;;;;;5.38;92.01;98377.70;105258;1256;99116;-72
2023/03/22 01:38:37;;;;;;;90.60;41.40;;;;;;;5.29;92.42;98373.39;105180;1256;112161;-73
2023/03/22 01:41:04;;;;;;;81.50;37.60;;;;;;;5.27;92.90;98373.26;105175;1256;99230;-73
2023/03/22 01:43:31;;;;;;;96.90;42.40;;;;;;;5.25;93.14;98372.94;105132;1266;98081;-72
2023/03/22 01:45:58;;;;;;;82.10;38.30;;;;;;;5.19;92.86;98376.52;105289;1256;99295;-73
2023/03/22 01:48:27;;;;;;;95.30;43.30;;;;;;;5.08;92.68;98370.48;105260;1258;97989;-73
2023/03/22 01:51:10;;;;;;;101.10;47.40;;;;;;;4.97;92.60;98370.62;105105;1253;97928;-73
2023/03/22 01:53:50;;;;;;;94.40;46.10;;;;;;;4.87;92.56;98369.23;105235;1256;99272;-72
2023/03/22 01:56:21;;;;;;;94.80;45.40;;;;;;;4.83;92.86;98369.79;105233;1259;107387;-73
2023/03/22 01:58:49;;;;;;;97.20;44.70;;;;;;;4.87;93.21;98371.40;105198;1253;98840;-72
2023/03/22 02:01:16;;;;;;;99.50;43.90;;;;;;;4.86;92.80;98370.59;105231;1266;98424;-72
2023/03/22 02:03:54;;;;;;;100.70;44.60;;;;;;;4.82;92.57;98367.58;105293;1254;97905;-72
2023/03/22 02:06:23;;;;;;;104.10;45.50;;;;;;;4.76;92.50;98364.20;105317;1256;99301;-73
2023/03/22 02:08:57;;;;;;;103.50;45.50;;;;;;;4.69;92.73;98361.85;105294;1256;109090;-73
2023/03/22 02:11:31;;;;;;;100.40;45.30;;;;;;;4.67;93.44;98356.33;105135;1275;99249;-72
2023/03/22 02:14:09;;;;;;;95.80;45.20;;;;;;;4.65;93.46;98356.13;105342;1256;98459;-73
2023/03/22 02:16:45;;;;;;;98.40;45.00;;;;;;;4.65;93.75;98356.73;105072;1256;112068;-72
2023/03/22 02:20:12;;;;;;;90.80;42.30;;;;;;;4.68;94.19;98348.35;105029;1256;99117;-75
2023/03/22 02:23:04;;;;;;;99.80;43.70;;;;;;;4.74;94.47;98344.90;104555;1274;108589;-75
2023/03/22 02:26:03;;;;;;;83.50;39.30;;;;;;;4.75;94.50;98345.36;104719;1274;98114;-72
2023/03/22 02:28:36;;;;;;;84.20;39.70;;;;;;;4.75;94.57;98340.15;104699;1263;98353;-72
2023/03/22 02:31:03;;;;;;;84.70;39.40;;;;;;;4.75;94.91;98342.16;104567;1263;111222;-72
2023/03/22 02:33:49;;;;;;;91.60;42.50;;;;;;;4.67;95.00;98342.48;104577;1273;98103;-72
2023/03/22 02:36:34;;;;;;;86.70;39.90;;;;;;;4.61;94.72;98339.88;104571;1264;108808;-73
2023/03/22 02:39:26;;;;;;;86.40;40.80;;;;;;;4.53;94.80;98338.09;104318;1265;98169;-71
2023/03/22 02:41:55;;;;;;;90.80;44.30;;;;;;;4.53;95.06;98335.63;104659;1264;98784;-73
2023/03/22 02:44:35;;;;;;;91.80;43.50;;;;;;;4.56;95.59;98337.63;104517;1272;112243;-73
2023/03/22 02:47:10;;;;;;;97.10;45.80;;;;;;;4.52;95.37;98337.71;104751;1259;99066;-72
2023/03/22 02:49:51;;;;;;;103.40;48.20;;;;;;;4.50;95.56;98336.75;104651;1265;108488;-72
2023/03/22 02:52:39;;;;;;;109.00;50.00;;;;;;;4.52;96.28;98330.23;104539;1260;98093;-72
2023/03/22 02:55:32;;;;;;;113.40;50.40;;;;;;;4.57;96.70;98331.27;104521;1265;98450;-72
2023/03/22 02:58:18;;;;;;;115.10;52.60;;;;;;;4.62;96.40;98330.80;104755;1274;112452;-72
2023/03/22 03:00:49;;;;;;;109.70;51.70;;;;;;;4.66;96.38;98328.40;105148;1256;99091;-72
2023/03/22 03:03:18;;;;;;;112.40;50.20;;;;;;;4.64;96.28;98329.87;105142;1272;108392;-72
2023/03/22 03:05:54;;;;;;;109.50;50.10;;;;;;;4.63;96.21;98330.10;105216;1266;97913;-72
2023/03/22 03:08:24;;;;;;;106.10;48.20;;;;;;;4.61;96.02;98329.45;105234;1256;98348;-72
2023/03/22 03:10:53;;;;;;;103.20;49.40;;;;;;;4.61;95.87;98332.39;105092;1256;112291;-72
2023/03/22 03:13:20;;;;;;;111.40;50.10;;;;;;;4.57;95.42;98332.02;104992;1264;99168;-71
2023/03/22 03:15:56;;;;;;;108.90;50.70;;;;;;;4.57;95.51;98331.64;105163;1256;98541;-72
2023/03/22 03:18:45;;;;;;;112.70;52.10;;;;;;;4.59;95.47;98334.89;105243;1268;97992;-72
2023/03/22 03:21:35;;;;;;;114.30;51.90;;;;;;;4.61;95.53;98337.88;105063;1267;98417;-72
2023/03/22 03:24:17;;;;;;;111.70;52.00;;;;;;;4.61;95.45;98333.59;105038;1259;110241;-72
2023/03/22 03:26:47;;;;;;;121.40;55.20;;;;;;;4.60;95.77;98337.33;105274;1256;99209;-71
2023/03/22 03:29:23;;;;;;;121.70;55.80;;;;;;;4.63;96.33;98341.49;105264;1256;108145;-72
2023/03/22 03:32:18;;;;;;;119.40;53.70;;;;;;;4.71;96.52;98346.27;105223;1265;97900;-72
2023/03/22 03:34:56;;;;;;;116.70;53.20;;;;;;;4.77;96.25;98347.58;105123;1266;99203;-71
2023/03/22 03:37:46;;;;;;;114.50;53.60;;;;;;;4.81;96.22;98344.45;105128;1256;111228;-71
2023/03/22 03:40:32;;;;;;;105.90;48.50;;;;;;;4.79;95.77;98339.48;105041;1257;99566;-74
2023/03/22 03:43:02;;;;;;;110.40;49.60;;;;;;;4.75;95.62;98335.43;105133;1256;108602;-73
2023/03/22 03:45:29;;;;;;;101.70;45.00;;;;;;;4.74;95.81;98332.57;105267;1258;99241;-72
2023/03/22 03:48:00;;;;;;;106.90;47.70;;;;;;;4.73;96.35;98335.02;105279;1254;97955;-71
2023/03/22 03:50:27;;;;;;;111.70;50.50;;;;;;;4.74;96.38;98334.36;105243;1254;111386;-72
2023/03/22 03:52:54;;;;;;;109.20;48.00;;;;;;;4.80;96.83;98340.00;105264;1256;99254;-71
2023/03/22 03:55:23;;;;;;;111.90;50.70;;;;;;;4.80;96.52;98340.27;105236;1255;98084;-71
2023/03/22 03:58:02;;;;;;;107.00;50.80;;;;;;;4.76;95.99;98339.02;105057;1266;97945;-72
2023/03/22 04:00:29;;;;;;;94.00;44.20;;;;;;;4.68;95.65;98343.63;105005;1256;98930;-71
2023/03/22 04:02:56;;;;;;;93.40;44.00;;;;;;;4.58;95.99;98342.61;105018;1256;112406;-71
2023/03/22 04:05:23;;;;;;;95.60;44.30;;;;;;;4.50;96.03;98338.05;105205;1256;98817;-71
2023/03/22 04:07:50;;;;;;;92.70;45.80;;;;;;;4.48;95.94;98341.31;105318;1253;97916;-71
2023/03/22 04:10:17;;;;;;;97.80;45.50;;;;;;;4.45;95.91;98335.90;105188;1256;98001;-71
2023/03/22 04:12:44;;;;;;;92.40;45.40;;;;;;;4.40;95.93;98330.88;105214;1267;98119;-71
2023/03/22 04:15:12;;;;;;;97.30;46.10;;;;;;;4.32;95.79;98330.50;105142;1256;98911;-71
2023/03/22 04:17:39;;;;;;;103.80;47.20;;;;;;;4.26;95.92;98330.21;105155;1261;98144;-71
2023/03/22 04:20:09;;;;;;;101.10;46.80;;;;;;;4.26;96.20;98337.33;105187;1267;98002;-71
2023/03/22 04:22:37;;;;;;;98.50;47.70;;;;;;;4.23;95.90;98337.29;105260;1267;97969;-72
2023/03/22 04:25:11;;;;;;;95.40;45.30;;;;;;;4.22;96.04;98337.29;105174;1267;98617;-71
2023/03/22 04:27:39;;;;;;;94.30;44.90;;;;;;;4.21;96.92;98338.11;105182;1255;111878;-71
2023/03/22 04:30:09;;;;;;;80.80;39.20;;;;;;;4.22;97.51;98337.40;105219;1264;99220;-72
2023/03/22 04:32:38;;;;;;;87.10;41.50;;;;;;;4.28;98.41;98332.31;105190;1267;107893;-72
2023/03/22 04:35:05;;;;;;;83.80;39.00;;;;;;;4.33;98.34;98331.14;105175;1256;97921;-71
2023/03/22 04:37:32;;;;;;;91.60;43.80;;;;;;;4.40;98.58;98332.25;105166;1266;98001;-71
2023/03/22 04:39:59;;;;;;;89.40;43.80;;;;;;;4.45;98.31;98336.50;105143;1256;97983;-72
2023/03/22 04:42:26;;;;;;;93.80;44.10;;;;;;;4.53;98.18;98332.27;105174;1256;99208;-73
2023/03/22 04:44:53;;;;;;;100.90;44.70;;;;;;;4.59;98.10;98331.48;105005;1268;97922;-72
2023/03/22 04:47:25;;;;;;;92.20;43.80;;;;;;;4.67;98.12;98336.42;105297;1256;97918;-74
2023/03/22 04:50:05;;;;;;;92.10;45.00;;;;;;;4.72;97.75;98334.86;104961;1264;98418;-73
2023/03/22 04:52:32;;;;;;;89.00;44.10;;;;;;;4.75;97.68;98337.71;105103;1258;111117;-72
2023/03/22 04:54:59;;;;;;;97.10;45.70;;;;;;;4.83;97.92;98336.79;105237;1256;98598;-72
2023/03/22 04:57:26;;;;;;;99.10;44.20;;;;;;;4.90;97.87;98336.08;105052;1258;97964;-73
2023/03/22 04:59:53;;;;;;;91.40;44.80;;;;;;;4.96;97.68;98338.04;105152;1253;97892;-73
2023/03/22 05:02:20;;;;;;;94.40;45.60;;;;;;;5.04;97.56;98341.13;105073;1267;99092;-78
2023/03/22 05:04:47;;;;;;;96.20;45.80;;;;;;;5.12;97.35;98340.13;105147;1254;98407;-71
2023/03/22 05:07:14;;;;;;;94.70;46.40;;;;;;;5.19;97.10;98341.81;105124;1267;98134;-77
2023/03/22 05:09:41;;;;;;;94.70;46.50;;;;;;;5.24;96.83;98336.23;105250;1275;99116;-73
2023/03/22 05:12:08;;;;;;;101.80;46.60;;;;;;;5.32;96.88;98337.71;105049;1257;97995;-70
2023/03/22 05:14:35;;;;;;;115.00;52.70;;;;;;;5.39;96.70;98342.21;105078;1267;98181;-70
2023/03/22 05:17:02;;;;;;;112.00;53.00;;;;;;;5.42;96.23;98343.38;105252;1256;97988;-71
2023/03/22 05:19:30;;;;;;;103.00;48.40;;;;;;;5.44;96.29;98345.86;105182;1256;99209;-72
2023/03/22 05:22:00;;;;;;;105.10;50.10;;;;;;;5.50;96.55;98348.52;105209;1267;99263;-72
2023/03/22 05:24:29;;;;;;;97.40;46.70;;;;;;;5.62;96.73;98344.48;105252;1258;97932;-72
2023/03/22 05:26:59;;;;;;;85.50;44.30;;;;;;;5.66;96.17;98339.39;105304;1260;112220;-72
2023/03/22 05:29:27;;;;;;;93.70;45.80;;;;;;;5.68;95.61;98342.80;105296;1256;99206;-72
2023/03/22 05:31:54;;;;;;;88.30;43.10;;;;;;;5.71;96.11;98341.83;105281;1257;108608;-71
2023/03/22 05:34:21;;;;;;;198.90;78.30;;;;;;;5.76;95.81;98344.88;105276;1256;97905;-72
2023/03/22 05:36:50;;;;;;;136.50;61.30;;;;;;;5.81;96.28;98348.23;105062;1266;99209;-71
2023/03/22 05:39:17;;;;;;;106.40;52.80;;;;;;;5.85;95.82;98345.81;105224;1266;112435;-72
2023/03/22 05:41:45;;;;;;;105.30;48.80;;;;;;;5.80;95.35;98345.21;105251;1267;97915;-71
2023/03/22 05:44:12;;;;;;;96.90;49.70;;;;;;;5.71;95.08;98342.21;105167;1257;108107;-71
2023/03/22 05:46:39;;;;;;;103.60;48.70;;;;;;;5.73;95.55;98341.55;105058;1257;97921;-72
2023/03/22 05:49:06;;;;;;;96.30;46.10;;;;;;;5.79;95.81;98340.93;105284;1256;99199;-72
2023/03/22 05:51:40;;;;;;;111.10;52.50;;;;;;;5.86;95.81;98343.19;105224;1257;97919;-71
2023/03/22 05:54:08;;;;;;;122.40;58.80;;;;;;;5.94;95.77;98344.12;105178;1259;99201;-72
2023/03/22 05:56:35;;;;;;;93.50;49.00;;;;;;;5.98;95.08;98344.84;105218;1253;109235;-72
2023/03/22 05:59:03;;;;;;;88.20;44.30;;;;;;;5.99;95.19;98345.04;105269;1269;97983;-72
2023/03/22 06:01:32;;;;;;;89.70;43.90;;;;;;;5.95;94.58;98343.41;105290;1265;98461;-72
2023/03/22 06:03:59;;;;;;;79.60;41.80;;;;;;;5.94;94.77;98344.38;105067;1260;111796;-72
2023/03/22 06:06:27;;;;;;;86.90;43.30;;;;;;;5.99;95.12;98343.04;105263;1256;98705;-72
2023/03/22 06:08:54;;;;;;;75.90;40.80;;;;;;;6.10;95.53;98341.79;105249;1260;97912;-71
2023/03/22 06:11:39;;;;;;;69.80;34.60;;;;;;;6.20;95.07;98346.65;105025;1259;97903;-72
2023/03/22 06:14:07;;;;;;;57.90;28.70;;;;;;;6.26;94.46;98346.69;105074;1257;97933;-72
2023/03/22 06:16:34;;;;;;;53.20;28.10;;;;;;;6.30;94.11;98345.23;105123;1256;99077;-73
2023/03/22 06:19:01;;;;;;;59.30;28.30;;;;;;;6.35;93.49;98347.55;105260;1257;97960;-73
2023/03/22 06:21:28;;;;;;;50.10;27.00;;;;;;;6.40;93.12;98349.55;105191;1268;98414;-73
2023/03/22 06:23:55;;;;;;;59.10;27.20;;;;;;;6.48;93.02;98352.83;105146;1267;99238;-73
2023/03/22 06:26:22;;;;;;;51.30;27.20;;;;;;;6.51;92.67;98353.25;105104;1260;98025;-74
2023/03/22 06:28:49;;;;;;;50.50;27.30;;;;;;;6.56;92.07;98352.77;105069;1256;97929;-76
2023/03/22 06:31:15;;;;;;;46.70;25.40;;;;;;;6.58;91.85;98349.57;105028;1257;107275;-72
2023/03/22 06:33:44;;;;;;;46.60;24.00;;;;;;;6.61;91.49;98351.80;105241;1266;97904;-72
2023/03/22 06:36:11;;;;;;;43.40;22.70;;;;;;;6.64;91.64;98348.56;105200;1266;98878;-72
2023/03/22 06:38:38;;;;;;;39.40;21.60;;;;;;;6.66;91.34;98345.86;105263;1267;98798;-73
2023/03/22 06:41:05;;;;;;;41.60;22.40;;;;;;;6.67;91.05;98345.52;105149;1275;98000;-72
2023/03/22 06:43:32;;;;;;;45.20;23.60;;;;;;;6.67;90.88;98345.36;105150;1267;97922;-72
2023/03/22 06:45:59;;;;;;;74.80;37.00;;;;;;;6.70;90.97;98347.87;105112;1267;98024;-72
2023/03/22 06:48:26;;;;;;;68.60;38.40;;;;;;;6.72;91.39;98349.80;105138;1266;99225;-74
2023/03/22 06:50:54;;;;;;;75.00;37.70;;;;;;;6.76;91.95;98347.62;105142;1257;97995;-71
2023/03/22 06:53:20;;;;;;;132.30;51.40;;;;;;;6.82;92.04;98350.56;105198;1265;99206;-74
2023/03/22 06:55:47;;;;;;;102.90;40.50;;;;;;;6.88;91.82;98348.52;105053;1264;98005;-72
2023/03/22 06:58:14;;;;;;;62.70;30.20;;;;;;;6.99;91.61;98345.02;105199;1267;99206;-71
2023/03/22 07:00:45;;;;;;;88.90;36.40;;;;;;;7.11;91.17;98347.34;105265;1254;97967;-71
2023/03/22 07:03:12;;;;;;;101.50;39.30;;;;;;;7.23;90.98;98346.64;105343;1260;98303;-72
2023/03/22 07:05:39;;;;;;;84.20;32.60;;;;;;;7.35;90.23;98348.13;105023;1267;99205;-72
2023/03/22 07:08:06;;;;;;;52.80;23.80;;;;;;;7.48;89.32;98353.08;105256;1267;97995;-73
2023/03/22 07:10:33;;;;;;;45.50;22.20;;;;;;;7.55;88.09;98349.89;105090;1258;97969;-73
2023/03/22 07:13:01;;;;;;;56.30;25.30;;;;;;;7.65;88.76;98353.33;105275;1267;98923;-73
2023/03/22 07:15:29;;;;;;;47.40;24.20;;;;;;;7.75;87.92;98357.53;105298;1267;99205;-73
2023/03/22 07:17:56;;;;;;;37.90;18.10;;;;;;;7.81;87.47;98353.92;105278;1260;99212;-73
2023/03/22 07:20:23;;;;;;;55.20;21.50;;;;;;;7.86;86.95;98355.36;105075;1265;97915;-73
2023/03/22 07:22:50;;;;;;;51.60;25.30;;;;;;;7.93;86.93;98354.90;105087;1254;98441;-73
2023/03/22 07:25:18;;;;;;;51.00;23.40;;;;;;;8.07;87.54;98355.72;105047;1257;97903;-73
2023/03/22 07:27:45;;;;;;;40.50;21.60;;;;;;;8.25;88.08;98357.20;105047;1257;98304;-74
2023/03/22 07:30:12;;;;;;;42.40;22.90;;;;;;;8.47;87.71;98355.77;105238;1266;98324;-72
2023/03/22 07:32:50;;;;;;;51.50;26.50;;;;;;;8.66;86.38;98354.16;105242;1269;97994;-73
2023/03/22 07:35:17;;;;;;;45.00;22.00;;;;;;;8.83;86.11;98356.00;105327;1267;98001;-73
2023/03/22 07:37:44;;;;;;;36.10;20.40;;;;;;;8.98;84.86;98351.39;105244;1260;97973;-73
2023/03/22 07:40:12;;;;;;;40.30;21.20;;;;;;;9.09;84.37;98351.67;105154;1267;97938;-74
2023/03/22 07:42:39;;;;;;;43.10;23.60;;;;;;;9.20;84.69;98353.64;105109;1256;99208;-73
2023/03/22 07:45:07;;;;;;;38.90;20.90;;;;;;;9.35;84.68;98352.23;105050;1267;99210;-73
2023/03/22 07:47:34;;;;;;;34.50;18.80;;;;;;;9.47;83.75;98351.88;105180;1258;99205;-75
2023/03/22 07:50:08;;;;;;;36.20;19.90;;;;;;;9.58;83.08;98352.50;105109;1257;112465;-75
2023/03/22 07:52:35;;;;;;;35.40;20.50;;;;;;;9.70;82.58;98348.46;105262;1256;98811;-72
2023/03/22 07:55:03;;;;;;;43.20;23.50;;;;;;;9.78;81.69;98346.92;105064;1267;97905;-72
2023/03/22 07:57:30;;;;;;;39.30;22.50;;;;;;;9.90;82.28;98341.20;105227;1267;97907;-72
2023/03/22 07:59:57;;;;;;;47.70;22.20;;;;;;;10.05;81.85;98335.35;105187;1257;98125;-72
2023/03/22 08:02:25;;;;;;;38.10;22.10;;;;;;;10.14;80.47;98338.00;105100;1267;97912;-72
2023/03/22 08:04:53;;;;;;;41.60;21.50;;;;;;;10.25;81.49;98337.14;105281;1267;97886;-73
2023/03/22 08:07:24;;;;;;;38.20;21.40;;;;;;;10.39;81.29;98337.13;105209;1260;108487;-73
2023/03/22 08:09:51;;;;;;;37.40;19.60;;;;;;;10.54;81.25;98337.45;105255;1266;99314;-72
2023/03/22 08:12:18;;;;;;;34.30;19.90;;;;;;;10.67;81.12;98331.95;104947;1269;97948;-74
2023/03/22 08:14:49;;;;;;;36.30;19.90;;;;;;;10.86;80.67;98335.88;105210;1257;97925;-74
2023/03/22 08:17:17;;;;;;;32.20;18.30;;;;;;;11.10;80.99;98333.09;105276;1266;99486;-74
2023/03/22 08:19:45;;;;;;;40.70;21.50;;;;;;;11.31;80.08;98332.02;105262;1267;108238;-75
2023/03/22 08:22:14;;;;;;;41.10;21.00;;;;;;;11.45;78.47;98335.19;105144;1267;98699;-75
2023/03/22 08:24:41;;;;;;;41.10;21.00;;;;;;;11.51;78.39;98336.61;105314;1256;99127;-75
2023/03/22 08:27:08;;;;;;;33.70;18.80;;;;;;;11.58;78.27;98337.30;105256;1267;97915;-74
2023/03/22 08:29:36;;;;;;;41.20;22.70;;;;;;;11.63;78.32;98338.25;105036;1266;97907;-74
2023/03/22 08:32:04;;;;;;;42.60;22.90;;;;;;;11.72;78.18;98337.52;105124;1267;98065;-73
2023/03/22 08:34:36;;;;;;;40.00;23.00;;;;;;;11.80;78.21;98341.38;105125;1257;97918;-73
2023/03/22 08:37:05;;;;;;;38.70;22.00;;;;;;;11.93;78.08;98343.71;105121;1257;99228;-74
2023/03/22 08:39:36;;;;;;;47.00;23.30;;;;;;;12.11;78.39;98343.58;105082;1257;111399;-75
2023/03/22 08:42:09;;;;;;;34.60;19.40;;;;;;;12.27;76.99;98340.52;105083;1260;99337;-74
2023/03/22 08:44:36;;;;;;;37.60;21.50;;;;;;;12.31;76.70;98341.27;105197;1255;99324;-74
2023/03/22 08:47:03;;;;;;;39.60;20.60;;;;;;;12.35;76.20;98337.33;104939;1266;98016;-74
2023/03/22 08:49:31;;;;;;;37.20;20.10;;;;;;;12.34;75.92;98337.13;105097;1258;97987;-74
2023/03/22 08:51:58;;;;;;;39.10;21.90;;;;;;;12.28;75.29;98339.70;105120;1257;97942;-75
2023/03/22 08:54:26;;;;;;;38.90;20.90;;;;;;;12.27;76.12;98334.79;105235;1264;97957;-74
2023/03/22 08:56:53;;;;;;;30.10;17.90;;;;;;;12.30;76.06;98335.42;105155;1275;98002;-74
2023/03/22 08:59:22;;;;;;;22.30;13.50;;;;;;;12.30;75.09;98331.77;105266;1267;99231;-76
2023/03/22 09:01:49;;;;;;;28.00;15.00;;;;;;;12.27;74.20;98328.50;105215;1257;97916;-77
2023/03/22 09:04:17;;;;;;;23.50;14.30;;;;;;;12.27;74.44;98328.65;105284;1266;97910;-75
2023/03/22 09:06:45;;;;;;;21.70;11.70;;;;;;;12.29;74.07;98326.75;105059;1256;98040;-75
2023/03/22 09:09:12;;;;;;;21.60;12.40;;;;;;;12.28;72.34;98326.96;105079;1257;107685;-75
2023/03/22 09:11:41;;;;;;;22.80;13.00;;;;;;;12.29;72.39;98324.18;105048;1258;99206;-77
2023/03/22 09:14:09;;;;;;;19.50;11.50;;;;;;;12.36;72.47;98327.72;105309;1258;98419;-72
2023/03/22 09:16:36;;;;;;;16.20;10.70;;;;;;;12.43;72.19;98330.20;105317;1267;112378;-75
2023/03/22 09:19:05;;;;;;;21.30;11.50;;;;;;;12.46;70.19;98325.67;105274;1256;97895;-76
2023/03/22 09:21:32;;;;;;;18.50;11.10;;;;;;;12.46;70.13;98327.47;105087;1275;109219;-76
2023/03/22 09:23:59;;;;;;;23.30;13.70;;;;;;;12.47;70.16;98328.88;105011;1263;98184;-75
2023/03/22 09:26:26;;;;;;;20.90;12.50;;;;;;;12.52;69.61;98326.23;105264;1258;97922;-75
2023/03/22 09:28:54;;;;;;;21.60;13.90;;;;;;;12.57;69.53;98319.06;105265;1267;97891;-76
2023/03/22 09:31:21;;;;;;;20.80;11.50;;;;;;;12.64;70.54;98314.38;105106;1256;97915;-76
2023/03/22 09:33:48;;;;;;;22.80;13.70;;;;;;;12.72;69.07;98308.70;105234;1258;99243;-75
2023/03/22 09:36:15;;;;;;;19.90;12.00;;;;;;;12.87;70.06;98307.35;105079;1275;97926;-77
2023/03/22 09:38:42;;;;;;;20.60;12.00;;;;;;;13.12;70.81;98309.72;105230;1263;97922;-78
2023/03/22 09:41:21;;;;;;;18.60;11.80;;;;;;;13.36;70.25;98305.95;105177;1267;97925;-77
2023/03/22 09:43:56;;;;;;;20.00;12.70;;;;;;;13.48;68.24;98305.02;105288;1253;99106;-78
2023/03/22 09:46:31;;;;;;;22.00;12.50;;;;;;;13.53;68.70;98304.05;104814;1272;107618;-76
2023/03/22 09:49:01;;;;;;;18.80;11.90;;;;;;;13.68;68.23;98296.83;105162;1267;97967;-76
2023/03/22 09:51:41;;;;;;;17.20;10.80;;;;;;;13.78;66.87;98304.39;105077;1257;97925;-76
2023/03/22 09:54:18;;;;;;;21.30;10.80;;;;;;;13.85;65.89;98300.90;105070;1257;112305;-77
2023/03/22 09:56:53;;;;;;;19.80;12.00;;;;;;;13.84;65.20;98302.23;105093;1254;98108;-78
2023/03/22 09:59:31;;;;;;;18.30;9.80;;;;;;;13.84;65.64;98300.31;105181;1259;108780;-79
2023/03/22 10:02:03;;;;;;;14.10;9.90;;;;;;;13.80;64.21;98296.65;105277;1267;97938;-79
2023/03/22 10:04:49;;;;;;;22.70;11.60;;;;;;;13.79;65.78;98300.10;105178;1260;98141;-78
2023/03/22 10:07:38;;;;;;;13.70;9.10;;;;;;;13.84;64.39;98296.95;105160;1258;112413;-79
2023/03/22 10:10:11;;;;;;;16.70;10.10;;;;;;;13.79;64.65;98295.85;105299;1257;97849;-80
2023/03/22 10:12:41;;;;;;;10.70;7.20;;;;;;;13.84;65.95;98293.10;105301;1264;108599;-79
2023/03/22 10:15:48;;;;;;;15.30;8.20;;;;;;;13.82;64.19;98292.64;105226;1258;97905;-80
2023/03/22 10:18:37;;;;;;;15.60;9.70;;;;;;;13.75;64.17;98289.95;105299;1258;97998;-80
2023/03/22 10:21:10;;;;;;;11.80;8.20;;;;;;;13.73;63.91;98289.45;105196;1258;110594;-79
2023/03/22 10:23:54;;;;;;;15.70;8.70;;;;;;;13.69;63.36;98279.46;105144;1266;99205;-79
2023/03/22 10:26:38;;;;;;;13.00;8.10;;;;;;;13.67;63.93;98273.27;105175;1266;108265;-80
2023/03/22 10:29:20;;;;;;;9.90;7.10;;;;;;;13.75;64.14;98274.30;105176;1256;99104;-80
2023/03/22 10:31:48;;;;;;;11.80;8.00;;;;;;;13.90;64.45;98272.80;105204;1267;97998;-80
2023/03/22 10:34:23;;;;;;;10.80;8.00;;;;;;;14.06;64.28;98269.66;105278;1254;111741;-80
2023/03/22 10:36:52;;;;;;;14.50;7.70;;;;;;;14.22;62.77;98273.69;105089;1256;97951;-81
2023/03/22 10:39:41;;;;;;;11.10;7.30;;;;;;;14.32;63.06;98272.00;105300;1255;108685;-80
2023/03/22 10:42:20;;;;;;;12.30;7.70;;;;;;;14.47;63.00;98276.54;105348;1259;97992;-81
2023/03/22 10:44:52;;;;;;;10.60;8.10;;;;;;;14.65;63.64;98277.04;105247;1254;98154;-77
2023/03/22 10:47:30;;;;;;;12.00;8.00;;;;;;;14.83;63.14;98278.49;105230;1258;111865;-82
2023/03/22 10:50:02;;;;;;;11.20;7.70;;;;;;;14.87;60.52;98276.42;105174;1257;99210;-82
2023/03/22 10:52:29;;;;;;;9.00;6.60;;;;;;;14.88;61.41;98272.65;105127;1268;108585;-82
2023/03/22 10:54:57;;;;;;;9.30;6.10;;;;;;;14.96;60.62;98267.65;105137;1257;97918;-81
2023/03/22 10:57:29;;;;;;;9.20;6.50;;;;;;;15.09;60.26;98258.88;105206;1254;99120;-79
2023/03/22 10:59:57;;;;;;;10.10;7.00;;;;;;;15.50;60.29;98257.35;105214;1258;99250;-79
2023/03/22 11:02:29;;;;;;;10.60;7.00;;;;;;;16.03;59.02;98259.92;105214;1258;99257;-77
2023/03/22 11:04:59;;;;;;;11.80;8.10;;;;;;;16.57;59.03;98258.09;105213;1254;108632;-80
2023/03/22 11:07:37;;;;;;;10.90;7.90;;;;;;;17.23;56.31;98257.27;105191;1254;98047;-81
2023/03/22 11:10:07;;;;;;;13.00;7.90;;;;;;;17.66;55.43;98252.21;105281;1267;97906;-81
2023/03/22 11:13:10;;;;;;;12.70;7.50;;;;;;;18.07;53.06;98249.41;104961;1260;111928;-78
2023/03/22 11:15:50;;;;;;;11.10;6.70;;;;;;;18.39;51.81;98249.52;105149;1254;99439;-82
2023/03/22 11:18:19;;;;;;;12.00;8.10;;;;;;;18.80;52.32;98247.40;105198;1256;108633;-82
2023/03/22 11:21:04;;;;;;;12.70;8.10;;;;;;;19.25;53.33;98248.17;105154;1269;97921;-81
2023/03/22 11:23:33;;;;;;;9.30;6.70;;;;;;;19.77;52.25;98248.45;105201;1264;98010;-85
2023/03/22 11:26:09;;;;;;;8.40;6.30;;;;;;;20.07;50.32;98246.20;106227;1256;112192;-80
2023/03/22 11:28:46;;;;;;;8.30;6.00;;;;;;;20.34;49.99;98241.02;105336;1257;99209;-87
2023/03/22 11:31:16;;;;;;;9.10;6.70;;;;;;;20.55;46.40;98235.14;105268;1258;108655;-83